Time;durP1;ratioP1;P1;durP2;ratioP2;P2;SDS_P1;SDS_P2;PMS_P1;PMS_P2;Temp;Humidity;BMP_temperature;BMP_pressure;BME280_temperature;BME280_humidity;BME280_pressure;Samples;Min_cycle;Max_cycle;Signal;HPM_P1;HPM_P2
2022/03/28 00:00:05;;;;;;;17.50;15.60;;;12.00;90.00;;;;;;5037985;28;20051;-78
2022/03/28 00:02:50;;;;;;;18.75;16.27;;;11.90;89.90;;;;;;5056513;28;20067;-79
2022/03/28 00:05:34;;;;;;;19.23;16.47;;;11.80;90.00;;;;;;5043238;28;20044;-77
2022/03/28 00:08:18;;;;;;;19.47;15.67;;;11.60;90.40;;;;;;5042491;28;20520;-78
2022/03/28 00:11:04;;;;;;;18.33;16.13;;;11.60;90.40;;;;;;5013574;28;20045;-77
2022/03/28 00:13:48;;;;;;;19.45;16.42;;;11.50;90.50;;;;;;5026824;28;20083;-76
2022/03/28 00:16:32;;;;;;;19.70;17.67;;;11.40;90.60;;;;;;5012686;28;20403;-77
2022/03/28 00:19:16;;;;;;;20.20;17.67;;;11.30;90.80;;;;;;5014561;28;20559;-78
2022/03/28 00:22:03;;;;;;;20.57;17.03;;;11.20;90.90;;;;;;5025889;28;20152;-78
2022/03/28 00:24:48;;;;;;;20.50;17.42;;;11.10;91.00;;;;;;5011613;28;20267;-77
2022/03/28 00:27:32;;;;;;;19.63;16.30;;;11.10;91.10;;;;;;5025024;28;20064;-77
2022/03/28 00:30:16;;;;;;;21.30;16.15;;;11.20;91.10;;;;;;5024975;28;20101;-77
2022/03/28 00:33:00;;;;;;;21.33;16.73;;;11.10;91.30;;;;;;5012660;28;20059;-78
2022/03/28 00:35:44;;;;;;;18.25;16.23;;;11.10;91.40;;;;;;5012030;28;20133;-79
2022/03/28 00:38:29;;;;;;;20.95;16.38;;;11.00;91.60;;;;;;5040088;28;20097;-78
2022/03/28 00:41:13;;;;;;;20.50;15.13;;;11.00;91.70;;;;;;5010944;28;20076;-78
2022/03/28 00:43:58;;;;;;;19.27;15.53;;;10.90;92.00;;;;;;5026163;28;20044;-78
2022/03/28 00:46:43;;;;;;;19.13;15.10;;;11.00;91.90;;;;;;5026253;28;20326;-78
2022/03/28 00:49:27;;;;;;;17.98;15.98;;;11.00;91.80;;;;;;5025278;28;20079;-78
2022/03/28 00:52:12;;;;;;;57.13;37.80;;;10.90;92.00;;;;;;5027646;28;20048;-77
2022/03/28 00:54:57;;;;;;;;;;;10.90;91.90;;;;;;5028813;28;20044;-79
2022/03/28 00:57:42;;;;;;;49.30;34.05;;;10.90;92.00;;;;;;5024515;28;19919;-79
2022/03/28 01:00:26;;;;;;;26.45;20.55;;;10.90;91.80;;;;;;5046557;28;20052;-77
2022/03/28 01:03:10;;;;;;;26.45;20.27;;;10.80;91.90;;;;;;5042100;28;20079;-77
2022/03/28 01:05:54;;;;;;;25.75;20.75;;;10.80;91.90;;;;;;5014402;28;20093;-77
2022/03/28 01:08:39;;;;;;;24.52;19.90;;;10.60;92.10;;;;;;5028202;28;20041;-77
2022/03/28 01:11:25;;;;;;;24.30;20.73;;;10.50;92.10;;;;;;5041673;28;20087;-77
2022/03/28 01:14:10;;;;;;;22.80;19.27;;;10.40;92.30;;;;;;5040982;28;20108;-78
2022/03/28 01:19:57;;;;;;;56.47;34.83;;;10.40;92.70;;;;;;5041686;28;19955;-78
2022/03/28 01:22:41;;;;;;;136.50;72.77;;;10.40;92.70;;;;;;5011142;28;20087;-77
2022/03/28 01:25:29;;;;;;;89.30;51.50;;;10.50;92.70;;;;;;5010230;28;20261;-77
2022/03/28 01:28:15;;;;;;;77.15;47.38;;;10.50;92.80;;;;;;5026920;28;20037;-77
2022/03/28 01:30:59;;;;;;;41.78;27.80;;;10.50;92.70;;;;;;5011136;28;20068;-77
2022/03/28 01:33:44;;;;;;;22.20;17.63;;;10.60;92.70;;;;;;5024184;28;20087;-77
2022/03/28 01:36:29;;;;;;;18.93;16.00;;;10.60;92.70;;;;;;5023782;28;20271;-78
2022/03/28 01:39:18;;;;;;;26.40;15.90;;;10.60;92.50;;;;;;5025462;28;20044;-78
2022/03/28 01:42:02;;;;;;;18.58;15.88;;;10.60;92.40;;;;;;5039814;28;20053;-78
2022/03/28 01:44:53;;;;;;;18.08;15.20;;;10.40;92.60;;;;;;5026836;28;20033;-77
2022/03/28 01:47:38;;;;;;;17.85;15.98;;;10.40;92.70;;;;;;5013516;28;20119;-77
2022/03/28 01:50:23;;;;;;;20.15;16.48;;;10.50;92.60;;;;;;5052158;28;20039;-77
2022/03/28 01:53:07;;;;;;;19.13;15.43;;;10.50;92.50;;;;;;5031277;28;20040;-77
2022/03/28 01:55:51;;;;;;;18.90;15.63;;;10.50;92.50;;;;;;5016406;28;20049;-77
2022/03/28 01:58:35;;;;;;;19.47;15.43;;;10.50;92.60;;;;;;5050399;28;20036;-78
2022/03/28 02:01:19;;;;;;;17.93;15.87;;;10.40;92.60;;;;;;5028508;28;20509;-78
2022/03/28 02:04:04;;;;;;;18.13;16.30;;;10.40;92.80;;;;;;5014584;28;20052;-79
2022/03/28 02:06:48;;;;;;;22.17;16.17;;;10.40;92.80;;;;;;5042071;28;20454;-77
2022/03/28 02:09:33;;;;;;;18.43;16.43;;;10.50;92.70;;;;;;5029755;28;20029;-78
2022/03/28 02:12:17;;;;;;;17.55;15.63;;;10.30;92.80;;;;;;5043874;28;20048;-77
2022/03/28 02:15:03;;;;;;;20.65;16.40;;;10.20;93.20;;;;;;5014550;28;20041;-77
2022/03/28 02:17:48;;;;;;;20.02;17.63;;;10.20;93.30;;;;;;5041948;28;20048;-78
2022/03/28 02:20:33;;;;;;;20.00;16.50;;;10.20;93.30;;;;;;5028906;28;20040;-77
2022/03/28 02:23:17;;;;;;;26.77;18.40;;;10.20;93.30;;;;;;5028929;28;20035;-78
2022/03/28 02:26:02;;;;;;;23.23;19.50;;;10.10;93.60;;;;;;5028376;28;20064;-78
2022/03/28 02:28:47;;;;;;;23.92;19.58;;;10.00;93.70;;;;;;5029000;28;20041;-78
2022/03/28 02:31:32;;;;;;;23.10;18.15;;;9.90;93.70;;;;;;5002138;28;20045;-78
2022/03/28 02:34:16;;;;;;;22.77;17.35;;;9.90;93.60;;;;;;5000966;28;20103;-77
2022/03/28 02:37:00;;;;;;;20.40;17.85;;;9.80;94.10;;;;;;5015820;28;20076;-78
2022/03/28 02:39:44;;;;;;;17.58;15.75;;;9.80;94.30;;;;;;5044095;28;20040;-77
2022/03/28 02:42:29;;;;;;;20.58;17.42;;;9.80;94.00;;;;;;5029552;28;20037;-77
2022/03/28 02:45:13;;;;;;;22.63;17.33;;;9.70;93.90;;;;;;5015198;28;20539;-77
2022/03/28 02:48:01;;;;;;;21.50;18.10;;;9.60;94.10;;;;;;5015791;28;20044;-78
2022/03/28 02:50:46;;;;;;;22.98;19.30;;;9.40;94.60;;;;;;5016699;28;20089;-77
2022/03/28 02:53:30;;;;;;;21.77;19.35;;;9.40;94.60;;;;;;5029433;28;20040;-77
2022/03/28 02:56:14;;;;;;;27.00;20.05;;;9.30;94.70;;;;;;5015418;28;20491;-78
2022/03/28 02:58:59;;;;;;;22.77;20.07;;;9.30;94.70;;;;;;5031831;28;20036;-79
2022/03/28 03:01:45;;;;;;;21.88;19.08;;;9.20;94.60;;;;;;5047997;28;20032;-78
2022/03/28 03:04:31;;;;;;;21.27;18.77;;;9.20;95.00;;;;;;5048755;28;20451;-78
2022/03/28 03:07:16;;;;;;;19.65;16.58;;;9.20;95.10;;;;;;5064069;28;20134;-76
2022/03/28 03:10:00;;;;;;;24.00;17.03;;;9.20;94.90;;;;;;5043236;28;20085;-76
2022/03/28 03:12:44;;;;;;;20.77;18.53;;;9.20;94.90;;;;;;5047249;28;20071;-77
2022/03/28 03:15:28;;;;;;;24.83;18.27;;;9.20;94.90;;;;;;5048583;28;20089;-77
2022/03/28 03:18:12;;;;;;;22.38;16.02;;;9.30;94.70;;;;;;5034477;28;20039;-77
2022/03/28 03:20:57;;;;;;;18.58;16.00;;;9.20;95.10;;;;;;5062606;28;20097;-77
2022/03/28 03:23:41;;;;;;;19.67;16.33;;;9.10;95.10;;;;;;5046955;28;20071;-78
2022/03/28 03:26:25;;;;;;;20.50;18.17;;;9.20;95.10;;;;;;5047820;28;20047;-78
2022/03/28 03:29:09;;;;;;;21.40;18.17;;;9.30;95.00;;;;;;5033074;28;20436;-78
2022/03/28 03:31:53;;;;;;;22.70;17.15;;;9.30;94.80;;;;;;5032538;28;20035;-77
2022/03/28 03:34:37;;;;;;;23.55;16.98;;;9.30;94.80;;;;;;5046747;28;20556;-77
2022/03/28 03:37:21;;;;;;;20.92;16.58;;;9.40;94.70;;;;;;5034262;28;20106;-76
2022/03/28 03:40:07;;;;;;;21.33;17.30;;;9.30;94.80;;;;;;5063211;28;20044;-78
2022/03/28 03:42:51;;;;;;;19.23;17.13;;;9.30;94.90;;;;;;5032502;28;20044;-78
2022/03/28 03:45:35;;;;;;;22.50;17.20;;;9.40;95.20;;;;;;5028102;28;20044;-78
2022/03/28 03:48:19;;;;;;;24.75;17.73;;;9.50;94.70;;;;;;5012383;28;20520;-77
2022/03/28 03:51:03;;;;;;;24.13;19.57;;;9.40;94.70;;;;;;5026343;28;20163;-77
2022/03/28 03:53:48;;;;;;;24.85;19.25;;;9.30;94.80;;;;;;5027196;28;20385;-78
2022/03/28 03:56:32;;;;;;;26.98;20.55;;;9.20;95.10;;;;;;5027615;28;20122;-78
2022/03/28 03:59:16;;;;;;;24.20;20.38;;;9.20;95.10;;;;;;5022509;28;20059;-77
2022/03/28 04:02:01;;;;;;;28.70;22.42;;;9.20;95.30;;;;;;5001172;28;20628;-78
2022/03/28 04:04:45;;;;;;;25.25;20.05;;;9.10;95.20;;;;;;5031811;28;20078;-77
2022/03/28 04:07:29;;;;;;;24.77;20.70;;;9.00;95.40;;;;;;5033580;28;20063;-77
2022/03/28 04:10:13;;;;;;;27.35;21.10;;;9.00;95.40;;;;;;5048420;28;20092;-77
2022/03/28 04:12:58;;;;;;;23.42;20.38;;;8.90;95.50;;;;;;5033746;28;20075;-77
2022/03/28 04:15:43;;;;;;;25.75;21.08;;;8.90;95.70;;;;;;5047436;28;20047;-78
2022/03/28 04:18:27;;;;;;;24.60;21.23;;;8.80;95.50;;;;;;5047240;28;20048;-77
2022/03/28 04:21:11;;;;;;;28.23;22.25;;;8.80;95.80;;;;;;5044921;28;20103;-77
2022/03/28 04:23:56;;;;;;;32.55;20.80;;;8.80;95.90;;;;;;5031884;28;20036;-77
2022/03/28 04:26:40;;;;;;;21.48;18.50;;;8.80;95.70;;;;;;5062271;28;20036;-77
2022/03/28 04:29:24;;;;;;;23.13;18.93;;;8.80;95.80;;;;;;5061186;28;20035;-77
2022/03/28 04:32:08;;;;;;;26.65;19.25;;;8.80;95.80;;;;;;5032534;28;20261;-77
2022/03/28 04:34:52;;;;;;;26.38;20.90;;;8.70;96.00;;;;;;5031700;28;20455;-77
2022/03/28 04:37:39;;;;;;;30.48;20.30;;;8.70;96.10;;;;;;5033455;28;20040;-77
2022/03/28 04:40:23;;;;;;;25.38;19.38;;;8.70;96.00;;;;;;5032116;28;20044;-77
2022/03/28 04:43:07;;;;;;;31.83;21.50;;;8.60;96.10;;;;;;5027542;28;20068;-77
2022/03/28 04:45:52;;;;;;;32.90;21.88;;;8.60;96.10;;;;;;5061152;28;20071;-77
2022/03/28 04:48:36;;;;;;;28.60;21.70;;;8.60;96.30;;;;;;5044573;28;20024;-78
2022/03/28 04:51:20;;;;;;;24.63;19.88;;;8.60;96.30;;;;;;5002287;28;20043;-78
2022/03/28 04:54:04;;;;;;;23.02;18.08;;;8.60;96.20;;;;;;5023658;28;20036;-78
2022/03/28 04:56:48;;;;;;;24.77;18.98;;;8.60;96.40;;;;;;5061097;28;20047;-78
2022/03/28 04:59:32;;;;;;;34.85;18.77;;;8.60;96.30;;;;;;5053231;28;20054;-78
2022/03/28 05:02:17;;;;;;;22.80;18.20;;;8.70;96.10;;;;;;5063807;28;20083;-79
2022/03/28 05:05:03;;;;;;;24.20;18.33;;;8.70;96.00;;;;;;5050579;28;20047;-79
2022/03/28 05:07:47;;;;;;;24.95;17.95;;;8.70;95.90;;;;;;5036477;28;20043;-78
2022/03/28 05:10:32;;;;;;;28.05;19.13;;;8.70;95.90;;;;;;5065279;28;20035;-78
2022/03/28 05:13:16;;;;;;;26.00;18.38;;;8.80;95.80;;;;;;5060458;28;20083;-78
2022/03/28 05:16:00;;;;;;;22.80;18.25;;;8.80;95.70;;;;;;5059640;28;20063;-78
2022/03/28 05:18:44;;;;;;;25.10;18.92;;;8.80;95.50;;;;;;5053279;28;20082;-79
2022/03/28 05:21:28;;;;;;;43.15;24.77;;;8.70;95.50;;;;;;5033809;28;20052;-78
2022/03/28 05:24:13;;;;;;;36.50;24.30;;;8.50;96.00;;;;;;5031944;28;20036;-76
2022/03/28 05:26:57;;;;;;;38.00;23.90;;;8.50;96.00;;;;;;5030620;28;20163;-78
2022/03/28 05:29:42;;;;;;;46.58;22.05;;;8.50;96.30;;;;;;5031998;28;20526;-77
2022/03/28 05:32:26;;;;;;;55.90;23.45;;;8.60;96.00;;;;;;5033723;28;20205;-77
2022/03/28 05:35:11;;;;;;;46.65;21.48;;;8.60;96.10;;;;;;5047960;28;20032;-77
2022/03/28 05:37:55;;;;;;;34.65;20.42;;;8.50;96.30;;;;;;5060235;28;20048;-77
2022/03/28 05:40:40;;;;;;;48.58;26.17;;;8.60;96.20;;;;;;5046997;28;20039;-78
2022/03/28 05:43:25;;;;;;;35.17;26.10;;;8.50;96.20;;;;;;5041426;28;20083;-77
2022/03/28 05:46:10;;;;;;;;;;;8.50;96.30;;;;;;5027700;28;20091;-79
2022/03/28 05:48:54;;;;;;;35.83;23.00;;;8.50;96.40;;;;;;5039226;28;19919;-79
2022/03/28 05:51:38;;;;;;;44.90;25.30;;;8.60;96.40;;;;;;5039476;28;20052;-77
2022/03/28 05:54:23;;;;;;;106.90;64.07;;;8.70;96.60;;;;;;5050949;28;20028;-78
2022/03/28 05:57:07;;;;;;;88.35;51.28;;;8.80;96.30;;;;;;5042461;28;20044;-78
2022/03/28 05:59:52;;;;;;;60.65;30.75;;;8.90;96.20;;;;;;5024053;28;20049;-78
2022/03/28 06:02:36;;;;;;;39.27;23.47;;;9.00;95.90;;;;;;5013777;28;20044;-77
2022/03/28 06:05:21;;;;;;;38.83;21.50;;;9.00;95.80;;;;;;5017921;28;20036;-78
2022/03/28 06:08:07;;;;;;;41.88;24.17;;;9.10;95.80;;;;;;5043089;28;20024;-79
2022/03/28 06:10:54;;;;;;;34.35;23.60;;;9.10;95.60;;;;;;5045939;28;20136;-78
2022/03/28 06:13:38;;;;;;;43.05;26.33;;;9.10;95.60;;;;;;5035918;28;20554;-77
2022/03/28 06:16:32;;;;;;;51.72;25.70;;;9.00;96.00;;;;;;5008991;28;20025;-78
2022/03/28 06:19:16;;;;;;;57.55;30.48;;;9.00;95.90;;;;;;5062327;28;20099;-79
2022/03/28 06:22:00;;;;;;;71.82;33.28;;;9.00;96.30;;;;;;5023909;28;20093;-78
2022/03/28 06:24:45;;;;;;;74.30;32.25;;;9.00;96.40;;;;;;5050084;28;20040;-78
2022/03/28 06:27:30;;;;;;;60.72;39.78;;;9.10;96.20;;;;;;5035231;28;20052;-78
2022/03/28 06:30:14;;;;;;;52.97;33.92;;;9.20;96.30;;;;;;5053666;28;20032;-78
2022/03/28 06:32:59;;;;;;;57.13;32.40;;;9.20;96.40;;;;;;5029730;28;20120;-79
2022/03/28 06:35:45;;;;;;;43.13;31.63;;;9.20;96.30;;;;;;5003209;28;20036;-78
2022/03/28 06:38:29;;;;;;;48.58;32.65;;;9.10;96.70;;;;;;5048148;28;20059;-79
2022/03/28 06:41:13;;;;;;;44.47;32.70;;;9.10;96.90;;;;;;5068480;28;20036;-78
2022/03/28 06:43:58;;;;;;;46.83;32.80;;;9.20;97.20;;;;;;5055502;28;20020;-78
2022/03/28 06:46:44;;;;;;;40.60;33.00;;;9.10;97.10;;;;;;5063834;28;20024;-79
2022/03/28 06:49:29;;;;;;;47.08;33.80;;;9.10;97.70;;;;;;5041306;28;20117;-78
2022/03/28 06:52:13;;;;;;;50.50;35.63;;;9.10;97.70;;;;;;5030611;28;20051;-77
2022/03/28 06:54:58;;;;;;;44.10;33.88;;;9.20;98.10;;;;;;5045063;28;20033;-78
2022/03/28 06:57:42;;;;;;;101.70;39.65;;;9.30;97.80;;;;;;5036923;28;20090;-78
2022/03/28 07:00:26;;;;;;;49.92;35.28;;;9.40;97.60;;;;;;5041463;28;20044;-77
2022/03/28 07:03:10;;;;;;;45.70;34.30;;;9.30;98.20;;;;;;5038494;28;20142;-78
2022/03/28 07:05:55;;;;;;;46.50;35.55;;;9.40;97.90;;;;;;5032819;28;20044;-78
2022/03/28 07:08:39;;;;;;;49.40;36.38;;;9.50;97.80;;;;;;5010938;28;20429;-78
2022/03/28 07:11:25;;;;;;;46.60;36.20;;;9.50;98.10;;;;;;5056699;28;20549;-78
2022/03/28 07:14:09;;;;;;;46.75;36.50;;;9.60;98.10;;;;;;5049625;28;20089;-78
2022/03/28 07:16:54;;;;;;;46.67;36.83;;;9.80;98.00;;;;;;5065990;28;20036;-78
2022/03/28 07:19:38;;;;;;;46.03;37.40;;;9.90;97.90;;;;;;5050922;28;20055;-78
2022/03/28 07:22:22;;;;;;;40.38;33.40;;;10.00;97.90;;;;;;5041436;28;20059;-77
2022/03/28 07:25:07;;;;;;;43.00;35.22;;;10.20;97.80;;;;;;5029797;28;20040;-78
2022/03/28 07:27:52;;;;;;;45.80;35.65;;;10.40;97.60;;;;;;5030586;28;20064;-78
2022/03/28 07:30:37;;;;;;;48.63;37.03;;;10.40;97.40;;;;;;5030150;28;20072;-78
2022/03/28 07:33:21;;;;;;;46.03;36.22;;;10.40;97.30;;;;;;5043414;28;20049;-77
2022/03/28 07:36:08;;;;;;;43.78;34.80;;;10.50;97.40;;;;;;5028853;28;20084;-78
2022/03/28 07:38:55;;;;;;;45.90;36.97;;;10.50;97.60;;;;;;5030268;28;20572;-78
2022/03/28 07:41:42;;;;;;;45.85;34.28;;;10.60;97.90;;;;;;5030631;28;20032;-78
2022/03/28 07:44:27;;;;;;;44.42;35.55;;;10.70;97.50;;;;;;5030831;28;20076;-77
2022/03/28 07:47:12;;;;;;;53.55;35.50;;;10.70;97.70;;;;;;5028954;28;20032;-78
2022/03/28 07:49:57;;;;;;;41.78;34.33;;;10.90;97.60;;;;;;5014009;28;20125;-79
2022/03/28 07:52:42;;;;;;;48.42;35.60;;;11.00;97.70;;;;;;5042403;28;20039;-78
2022/03/28 07:55:29;;;;;;;44.75;34.42;;;11.20;97.10;;;;;;5041985;28;20063;-78
2022/03/28 07:58:14;;;;;;;48.25;34.65;;;11.30;97.10;;;;;;5032072;28;20108;-78
2022/03/28 08:00:58;;;;;;;44.27;35.97;;;11.30;97.10;;;;;;5035844;28;20055;-79
2022/03/28 08:03:42;;;;;;;44.95;33.97;;;11.40;97.50;;;;;;5035662;28;20036;-78
2022/03/28 08:06:26;;;;;;;45.28;35.60;;;11.50;97.20;;;;;;5035167;28;20052;-77
2022/03/28 08:09:11;;;;;;;44.55;32.03;;;11.60;97.30;;;;;;5033928;28;20052;-77
2022/03/28 08:11:56;;;;;;;45.63;34.30;;;11.80;96.90;;;;;;5032889;28;20447;-78
2022/03/28 08:14:43;;;;;;;42.20;33.78;;;11.90;96.40;;;;;;5035165;28;20040;-76
2022/03/28 08:17:27;;;;;;;45.85;34.03;;;11.90;96.70;;;;;;5035459;28;20051;-79
2022/03/28 08:20:13;;;;;;;42.10;32.92;;;12.00;96.80;;;;;;5048295;28;20052;-78
2022/03/28 08:22:59;;;;;;;42.00;32.17;;;12.20;96.70;;;;;;5043633;28;20102;-77
2022/03/28 08:25:47;;;;;;;44.33;33.22;;;12.20;96.70;;;;;;5041770;28;20083;-78
2022/03/28 08:28:32;;;;;;;43.67;32.20;;;12.40;96.30;;;;;;5035987;28;20039;-78
2022/03/28 08:31:17;;;;;;;45.65;32.25;;;12.70;96.00;;;;;;5040491;28;20039;-78
2022/03/28 08:34:03;;;;;;;;;;;12.80;95.70;;;;;;5012541;28;20039;-77
2022/03/28 08:36:48;;;;;;;46.42;31.67;;;12.80;95.70;;;;;;5038419;28;19911;-78
2022/03/28 08:39:32;;;;;;;44.53;32.93;;;12.70;95.80;;;;;;5039941;28;20634;-76
2022/03/28 08:42:18;;;;;;;43.20;31.10;;;12.70;96.00;;;;;;5038125;28;20283;-78
2022/03/28 08:45:03;;;;;;;41.63;31.67;;;12.80;95.70;;;;;;5031415;28;20063;-78
2022/03/28 08:47:49;;;;;;;42.97;30.92;;;12.80;95.70;;;;;;5038030;28;20028;-77
2022/03/28 08:50:35;;;;;;;51.83;31.13;;;12.80;95.60;;;;;;5050147;28;20067;-77
2022/03/28 08:53:19;;;;;;;38.05;30.55;;;12.90;95.50;;;;;;5044881;28;20040;-77
2022/03/28 08:56:12;;;;;;;43.87;31.17;;;13.10;95.20;;;;;;5022100;28;20088;-78
2022/03/28 08:59:07;;;;;;;42.20;31.83;;;13.00;95.30;;;;;;5038169;28;20039;-80
2022/03/28 09:01:57;;;;;;;38.33;30.73;;;13.00;95.40;;;;;;5033124;28;20083;-78
2022/03/28 09:04:47;;;;;;;41.88;31.52;;;13.20;95.00;;;;;;5033356;28;20037;-78
2022/03/28 09:07:31;;;;;;;37.75;30.88;;;13.10;95.30;;;;;;5033751;28;20116;-78
2022/03/28 09:10:17;;;;;;;38.70;30.50;;;13.30;94.80;;;;;;5043018;28;20023;-77
2022/03/28 09:13:09;;;;;;;41.97;31.50;;;13.50;94.90;;;;;;5035440;28;20089;-77
2022/03/28 09:15:56;;;;;;;37.13;30.98;;;13.50;94.60;;;;;;5061127;28;20148;-78
2022/03/28 09:18:43;;;;;;;41.22;31.73;;;13.60;94.60;;;;;;5054208;28;20096;-78
2022/03/28 09:21:27;;;;;;;41.83;33.38;;;13.70;94.70;;;;;;5030315;28;20529;-77
2022/03/28 09:24:12;;;;;;;36.00;29.67;;;13.80;94.70;;;;;;5023325;28;20115;-78
2022/03/28 09:27:16;;;;;;;39.57;30.90;;;13.90;94.50;;;;;;5023087;28;20028;-78
2022/03/28 09:30:18;;;;;;;37.88;30.73;;;14.10;94.00;;;;;;5039433;28;20461;-78
2022/03/28 09:33:02;;;;;;;38.25;31.13;;;14.20;94.00;;;;;;5039264;28;20055;-78
2022/03/28 09:35:49;;;;;;;40.70;30.40;;;14.20;93.80;;;;;;5041942;28;20040;-78
2022/03/28 09:38:34;;;;;;;39.95;29.45;;;14.30;93.90;;;;;;5043746;28;20055;-77
2022/03/28 09:41:18;;;;;;;;;;;14.50;93.70;;;;;;5036431;28;20053;-77
2022/03/28 09:44:03;;;;;;;37.00;30.13;;;14.50;93.70;;;;;;5053977;28;19915;-78
2022/03/28 09:46:50;;;;;;;36.63;28.50;;;14.70;93.20;;;;;;5050625;28;20035;-77
2022/03/28 09:49:35;;;;;;;34.83;27.65;;;14.90;93.00;;;;;;5066467;28;20055;-79
2022/03/28 09:52:21;;;;;;;41.20;31.17;;;14.90;93.00;;;;;;5040440;28;20040;-78
2022/03/28 09:55:06;;;;;;;42.58;30.13;;;14.90;93.00;;;;;;5053570;28;20048;-76
2022/03/28 09:57:50;;;;;;;;;;;14.90;92.60;;;;;;5032500;28;20067;-78
2022/03/28 10:00:35;;;;;;;32.78;28.20;;;15.20;92.00;;;;;;5049204;28;20417;-77
2022/03/28 10:03:23;;;;;;;32.95;28.98;;;15.10;91.80;;;;;;5063155;28;20043;-77
2022/03/28 10:06:08;;;;;;;31.67;26.67;;;15.10;92.10;;;;;;5064219;28;20041;-78
2022/03/28 10:08:55;;;;;;;31.88;27.17;;;15.20;91.70;;;;;;5054095;28;20071;-80
2022/03/28 10:11:46;;;;;;;30.17;24.40;;;15.30;91.50;;;;;;5063406;28;20086;-79
2022/03/28 10:14:31;;;;;;;33.20;25.30;;;15.60;91.10;;;;;;5057193;28;20067;-78
2022/03/28 10:17:16;;;;;;;28.95;23.55;;;15.70;90.90;;;;;;5062014;28;20063;-78
2022/03/28 10:20:02;;;;;;;;;;;15.80;90.40;;;;;;5065103;28;20031;-76
2022/03/28 10:22:50;;;;;;;28.77;24.00;;;15.80;90.40;;;;;;5073868;28;19963;-78
2022/03/28 10:25:36;;;;;;;28.30;25.08;;;15.70;90.40;;;;;;5063149;28;20067;-78
2022/03/28 10:28:21;;;;;;;26.35;22.85;;;15.80;90.40;;;;;;5072268;28;20035;-78
2022/03/28 10:31:18;;;;;;;27.60;22.58;;;16.00;89.20;;;;;;5079639;28;20063;-77
2022/03/28 10:34:03;;;;;;;28.38;22.52;;;16.10;88.90;;;;;;5074048;28;20116;-79
2022/03/28 10:36:47;;;;;;;26.77;20.45;;;16.20;88.90;;;;;;5070283;28;20059;-78
2022/03/28 10:39:34;;;;;;;29.93;23.30;;;16.20;88.40;;;;;;5056668;28;20043;-77
2022/03/28 10:42:24;;;;;;;26.20;22.52;;;16.30;88.20;;;;;;5058644;28;20314;-78
2022/03/28 10:45:08;;;;;;;26.92;22.35;;;16.30;88.30;;;;;;5051419;28;20075;-77
2022/03/28 10:47:55;;;;;;;30.27;22.50;;;16.30;87.80;;;;;;5037082;28;20032;-78
2022/03/28 10:50:53;;;;;;;29.48;23.30;;;16.50;88.20;;;;;;5068108;28;20063;-77
2022/03/28 10:53:47;;;;;;;25.95;21.55;;;16.60;87.20;;;;;;5054359;28;20028;-78
2022/03/28 10:56:43;;;;;;;30.98;22.88;;;16.70;87.50;;;;;;5053085;28;20024;-78
2022/03/28 10:59:30;;;;;;;29.25;22.15;;;16.70;86.00;;;;;;5039770;28;20032;-78
2022/03/28 11:02:28;;;;;;;33.35;22.50;;;16.70;85.90;;;;;;5040665;28;20040;-78
2022/03/28 11:05:14;;;;;;;25.55;22.13;;;16.80;86.30;;;;;;5042880;28;20032;-78
2022/03/28 11:08:22;;;;;;;26.38;21.73;;;16.80;85.40;;;;;;5071811;28;20032;-79
2022/03/28 11:11:18;;;;;;;22.88;20.38;;;16.90;85.40;;;;;;5050592;28;20085;-78
2022/03/28 11:14:09;;;;;;;26.20;23.05;;;17.00;84.60;;;;;;5066022;28;20583;-78
2022/03/28 11:16:57;;;;;;;26.33;21.73;;;16.90;84.80;;;;;;5035392;28;20140;-78
2022/03/28 11:20:00;;;;;;;27.77;22.25;;;16.80;85.70;;;;;;5049817;28;20063;-78
2022/03/28 11:23:10;;;;;;;31.27;22.98;;;16.70;85.90;;;;;;5049656;28;20063;-79
2022/03/28 11:25:57;;;;;;;27.67;22.15;;;16.90;85.80;;;;;;5064580;28;20423;-78
2022/03/28 11:28:43;;;;;;;26.77;22.25;;;17.10;84.70;;;;;;5036045;28;20112;-78
2022/03/28 11:31:27;;;;;;;24.77;21.75;;;17.10;84.30;;;;;;5064833;28;20055;-77
2022/03/28 11:34:12;;;;;;;22.52;19.77;;;17.20;84.00;;;;;;5034828;28;20039;-77
2022/03/28 11:37:04;;;;;;;25.65;21.38;;;17.40;83.50;;;;;;5048648;28;20423;-78
2022/03/28 11:39:57;;;;;;;24.23;20.83;;;17.30;83.50;;;;;;5066023;28;20024;-78
2022/03/28 11:42:49;;;;;;;24.02;20.15;;;17.50;82.60;;;;;;5036148;28;20093;-77
2022/03/28 11:45:34;;;;;;;23.33;19.83;;;17.60;82.20;;;;;;5032246;28;20107;-78
2022/03/28 11:48:19;;;;;;;22.42;18.05;;;17.40;81.50;;;;;;5003852;28;20450;-78
2022/03/28 11:51:14;;;;;;;22.65;18.13;;;17.40;81.80;;;;;;5031938;28;20044;-76
2022/03/28 11:54:08;;;;;;;24.83;17.95;;;17.50;81.20;;;;;;5014885;28;20028;-78
2022/03/28 11:59:55;;;;;;;20.20;15.82;;;17.50;79.50;;;;;;5046534;28;20033;-78
2022/03/28 12:02:57;;;;;;;18.55;14.93;;;17.50;80.00;;;;;;5054686;28;20040;-78
2022/03/28 12:05:44;;;;;;;16.00;13.05;;;17.30;79.50;;;;;;5063585;28;20079;-78
2022/03/28 12:08:29;;;;;;;15.13;10.57;;;17.40;78.90;;;;;;5064143;28;20059;-78
2022/03/28 12:11:23;;;;;;;23.00;12.68;;;17.40;75.90;;;;;;5064150;28;20024;-76
2022/03/28 12:14:07;;;;;;;15.88;12.05;;;17.50;76.70;;;;;;5043399;28;20412;-78
2022/03/28 12:16:57;;;;;;;18.83;11.48;;;17.50;77.30;;;;;;5066454;28;20079;-77
2022/03/28 12:19:42;;;;;;;13.32;10.95;;;17.60;76.10;;;;;;5048874;28;20546;-77
2022/03/28 12:22:27;;;;;;;16.30;11.05;;;17.80;76.30;;;;;;5035903;28;20031;-78
2022/03/28 12:25:38;;;;;;;14.57;11.20;;;18.00;74.30;;;;;;5047533;28;20269;-78
2022/03/28 12:28:27;;;;;;;19.17;13.55;;;17.90;75.20;;;;;;5047813;28;20078;-77
2022/03/28 12:31:12;;;;;;;15.75;13.45;;;18.00;76.20;;;;;;5062637;28;20036;-78
2022/03/28 12:33:57;;;;;;;13.73;11.57;;;17.90;76.00;;;;;;5034156;28;20055;-77
2022/03/28 12:36:41;;;;;;;15.85;11.68;;;17.90;73.50;;;;;;5033797;28;20096;-78
2022/03/28 12:39:27;;;;;;;15.23;12.02;;;17.80;73.40;;;;;;5047330;28;20051;-78
2022/03/28 12:42:28;;;;;;;14.00;11.68;;;17.60;74.30;;;;;;5051193;28;20044;-78
2022/03/28 12:45:12;;;;;;;16.10;12.40;;;17.80;74.20;;;;;;5044100;28;20103;-78
2022/03/28 12:48:02;;;;;;;16.20;12.43;;;18.10;74.10;;;;;;5042748;28;20099;-79
2022/03/28 12:50:58;;;;;;;15.43;12.13;;;18.10;74.30;;;;;;5053294;28;20440;-77
2022/03/28 12:53:42;;;;;;;18.35;12.65;;;18.60;74.00;;;;;;5049674;28;20411;-78
2022/03/28 12:56:27;;;;;;;14.98;13.30;;;18.70;72.50;;;;;;5049275;28;20032;-83
2022/03/28 12:59:37;;;;;;;21.23;14.60;;;18.80;72.70;;;;;;5047696;28;20095;-78
2022/03/28 13:02:21;;;;;;;27.77;14.68;;;18.80;72.70;;;;;;5047773;28;20043;-78
2022/03/28 13:05:15;;;;;;;22.42;14.35;;;19.00;72.50;;;;;;5046531;28;20070;-79
2022/03/28 13:08:12;;;;;;;19.03;15.70;;;19.00;71.80;;;;;;5047129;28;20036;-78
2022/03/28 13:11:13;;;;;;;18.92;16.10;;;18.90;72.20;;;;;;5048743;28;20095;-77
2022/03/28 13:14:00;;;;;;;18.95;14.88;;;18.90;72.70;;;;;;5045769;28;20534;-78
2022/03/28 13:16:44;;;;;;;19.38;15.65;;;19.20;72.20;;;;;;5047498;28;20083;-80
2022/03/28 13:19:28;;;;;;;22.88;17.20;;;19.50;71.90;;;;;;5047150;28;20032;-78
2022/03/28 13:22:17;;;;;;;19.40;17.40;;;19.60;71.70;;;;;;5062913;28;20044;-77
2022/03/28 13:25:31;;;;;;;23.17;17.50;;;19.60;73.00;;;;;;5066302;28;20082;-77
2022/03/28 13:28:26;;;;;;;20.67;17.85;;;19.80;73.00;;;;;;5053781;28;20028;-79
2022/03/28 13:31:12;;;;;;;22.50;17.88;;;20.20;72.30;;;;;;5074090;28;20028;-78
2022/03/28 13:33:57;;;;;;;25.65;19.20;;;20.50;72.20;;;;;;5061194;28;20047;-78
2022/03/28 13:36:42;;;;;;;22.48;19.42;;;20.60;71.50;;;;;;5054580;28;20035;-79
2022/03/28 13:39:26;;;;;;;26.95;18.77;;;20.40;71.10;;;;;;5034046;28;20059;-79
2022/03/28 13:42:10;;;;;;;;;;;20.20;71.00;;;;;;5033583;28;20036;-79
2022/03/28 13:44:55;;;;;;;26.73;18.95;;;19.90;72.10;;;;;;5062264;28;19916;-78
2022/03/28 13:47:40;;;;;;;20.25;17.55;;;20.00;71.80;;;;;;5049570;28;20063;-79
2022/03/28 13:50:24;;;;;;;25.15;19.05;;;20.50;71.70;;;;;;5052154;28;20488;-79
2022/03/28 13:53:12;;;;;;;23.10;18.17;;;20.50;70.60;;;;;;5051652;28;20040;-78
2022/03/28 13:55:57;;;;;;;26.98;19.55;;;20.40;71.20;;;;;;5050957;28;20032;-79
2022/03/28 13:58:41;;;;;;;;;;;20.40;72.20;;;;;;5051228;28;20033;-77
2022/03/28 14:01:28;;;;;;;25.67;20.30;;;20.00;73.70;;;;;;5046919;28;19920;-79
2022/03/28 14:04:12;;;;;;;23.92;19.45;;;19.60;74.40;;;;;;5005720;28;20115;-79
2022/03/28 14:06:56;;;;;;;22.90;18.95;;;19.50;75.90;;;;;;5019862;28;20052;-79
2022/03/28 14:09:40;;;;;;;21.73;18.85;;;19.50;75.90;;;;;;5003178;28;20079;-79
2022/03/28 14:12:25;;;;;;;21.20;18.38;;;19.50;76.00;;;;;;5031511;28;20089;-78
2022/03/28 14:15:10;;;;;;;23.75;19.90;;;19.50;75.20;;;;;;5006107;28;20064;-78